< < Back
Terminal Aerodrome Forecast


Current Version              Previous Versions:   1  2  3  4  5  6  7  8  9  

Terminal Aerodrome Forecast

491
FTUS44 KMOB 270520
TAFPNS
TAF
KPNS 270520Z 2706/2806 VRB04KT P6SM SCT050 BKN250
     FM271800 20008KT P6SM VCTS SCT030CB SCT250 PROB30 2718/2724
      VRB15G25KT 4SM TSRA BKN030CB=

Latest METAR

740
SAUS70 KWBC 271618 RRI
MTRPNS
METAR KPNS 271553Z COR 15008KT 10SM BKN021 BKN025 31/24 A3008 RMK AO2
SLP186 T03110244


USA.gov is the U.S. government's official web portal to all federal, state and local government web resources and services.